Time;durP1;ratioP1;P1;durP2;ratioP2;P2;SDS_P1;SDS_P2;PMS_P1;PMS_P2;Temp;Humidity;BMP_temperature;BMP_pressure;BME280_temperature;BME280_humidity;BME280_pressure;Samples;Min_cycle;Max_cycle;Signal;HPM_P1;HPM_P2
2023/08/11 00:00:08;;;;;;;10.80;7.80;;;;;;;9.38;100.00;98477.70;106897;1279;23441;-84
2023/08/11 00:02:59;;;;;;;8.10;6.60;;;;;;;9.34;100.00;98478.19;106889;1276;22525;-84
2023/08/11 00:05:28;;;;;;;10.50;7.20;;;;;;;9.30;100.00;98475.25;106891;1277;24221;-85
2023/08/11 00:07:57;;;;;;;9.30;6.50;;;;;;;9.30;100.00;98478.20;106958;1272;22540;-84
2023/08/11 00:10:25;;;;;;;7.60;6.80;;;;;;;9.34;100.00;98476.30;106888;1279;22530;-84
2023/08/11 00:12:55;;;;;;;7.30;6.10;;;;;;;9.32;100.00;98475.94;106901;1276;22612;-85
2023/08/11 00:15:28;;;;;;;10.00;7.00;;;;;;;9.30;100.00;98478.30;106890;1279;23908;-86
2023/08/11 00:18:00;;;;;;;9.10;8.00;;;;;;;9.28;100.00;98475.85;106922;1279;22562;-86
2023/08/11 00:20:28;;;;;;;8.50;7.30;;;;;;;9.24;100.00;98476.98;106871;1271;25930;-84
2023/08/11 00:22:56;;;;;;;8.70;7.60;;;;;;;9.21;100.00;98475.39;106749;1280;22574;-85
2023/08/11 00:25:24;;;;;;;9.50;8.20;;;;;;;9.20;100.00;98475.11;106799;1280;22661;-84
2023/08/11 00:27:52;;;;;;;9.00;7.60;;;;;;;9.18;100.00;98473.95;106637;1280;215384;-84
2023/08/11 00:30:23;;;;;;;9.30;7.10;;;;;;;9.17;100.00;98476.33;106860;1280;22527;-85
2023/08/11 00:32:51;;;;;;;8.90;7.40;;;;;;;9.14;100.00;98474.94;107119;1280;22548;-90
2023/08/11 00:35:21;;;;;;;9.90;6.90;;;;;;;9.11;100.00;98473.05;107024;1280;22531;-87
2023/08/11 00:37:49;;;;;;;8.90;7.40;;;;;;;9.07;100.00;98470.92;107151;1280;25416;-87
2023/08/11 00:40:18;;;;;;;13.20;7.70;;;;;;;9.04;100.00;98471.41;106917;1280;24206;-86
2023/08/11 00:42:46;;;;;;;8.80;7.70;;;;;;;9.05;100.00;98472.55;107263;1280;22534;-86
2023/08/11 00:45:14;;;;;;;9.30;7.70;;;;;;;9.03;100.00;98472.22;107326;1280;22597;-85
2023/08/11 00:47:42;;;;;;;11.70;8.70;;;;;;;9.03;100.00;98470.02;107134;1280;22552;-85
2023/08/11 00:50:12;;;;;;;10.40;8.60;;;;;;;9.06;100.00;98474.90;106987;1280;22761;-88
2023/08/11 00:52:40;;;;;;;10.10;9.10;;;;;;;9.07;100.00;98475.70;106749;1280;24213;-86
2023/08/11 00:55:09;;;;;;;9.60;8.70;;;;;;;9.09;100.00;98472.20;107052;1280;22534;-85
2023/08/11 00:57:38;;;;;;;10.90;8.90;;;;;;;9.09;100.00;98470.86;106943;1280;25735;-84
2023/08/11 01:00:12;;;;;;;9.70;8.70;;;;;;;9.05;100.00;98468.41;106751;1280;24051;-84
2023/08/11 01:02:43;;;;;;;10.70;9.30;;;;;;;9.01;100.00;98465.14;106662;1280;24489;-85
2023/08/11 01:05:14;;;;;;;10.20;9.30;;;;;;;8.98;100.00;98464.17;106679;1280;23165;-83
2023/08/11 01:08:09;;;;;;;12.10;10.80;;;;;;;8.95;100.00;98464.84;106670;1280;22654;-84
2023/08/11 01:11:18;;;;;;;11.80;10.30;;;;;;;8.94;100.00;98465.23;106672;1280;22748;-86
2023/08/11 01:13:57;;;;;;;11.40;10.20;;;;;;;8.88;100.00;98466.58;106474;1280;22788;-86
2023/08/11 01:16:27;;;;;;;13.30;10.90;;;;;;;8.87;100.00;98469.05;106686;1276;22583;-85
2023/08/11 01:18:57;;;;;;;11.90;10.60;;;;;;;8.89;100.00;98467.16;106681;1280;22643;-84
2023/08/11 01:21:27;;;;;;;12.00;10.80;;;;;;;8.87;100.00;98462.44;106765;1280;22531;-85
2023/08/11 01:23:56;;;;;;;12.20;10.90;;;;;;;8.90;100.00;98462.96;106730;1280;22636;-85
2023/08/11 01:26:24;;;;;;;13.50;10.80;;;;;;;8.92;100.00;98465.55;106758;1280;22686;-85
2023/08/11 01:28:54;;;;;;;11.90;10.70;;;;;;;8.93;100.00;98459.94;106750;1280;22590;-85
2023/08/11 01:31:22;;;;;;;11.50;10.20;;;;;;;8.93;100.00;98465.48;106758;1280;22578;-84
2023/08/11 01:33:50;;;;;;;13.00;11.00;;;;;;;8.91;100.00;98461.56;106751;1280;22548;-86
2023/08/11 01:36:18;;;;;;;12.40;11.20;;;;;;;8.92;100.00;98463.55;106719;1280;24395;-86
2023/08/11 01:38:46;;;;;;;13.70;10.80;;;;;;;8.91;100.00;98462.86;106588;1280;25287;-86
2023/08/11 01:41:15;;;;;;;13.60;11.30;;;;;;;8.90;100.00;98461.67;106684;1280;25244;-86
2023/08/11 01:43:45;;;;;;;12.20;11.00;;;;;;;8.87;100.00;98459.05;106690;1280;22529;-85
2023/08/11 01:46:13;;;;;;;16.90;11.00;;;;;;;8.88;100.00;98457.98;106727;1279;24782;-85
2023/08/11 01:48:43;;;;;;;13.00;11.00;;;;;;;8.86;100.00;98454.85;106748;1280;22658;-85
2023/08/11 01:51:11;;;;;;;12.70;11.00;;;;;;;8.86;100.00;98457.50;106748;1280;24391;-85
2023/08/11 01:53:40;;;;;;;11.90;10.70;;;;;;;8.86;100.00;98454.92;106806;1280;25338;-85
2023/08/11 01:56:11;;;;;;;12.80;10.80;;;;;;;8.87;100.00;98461.68;106838;1280;25285;-85
2023/08/11 01:58:39;;;;;;;12.50;11.20;;;;;;;8.88;100.00;98461.04;106833;1280;22643;-85
2023/08/11 02:01:08;;;;;;;14.30;12.50;;;;;;;8.89;100.00;98460.94;106850;1280;22642;-85
2023/08/11 02:03:36;;;;;;;15.10;12.50;;;;;;;8.85;100.00;98462.55;106801;1259;22739;-85
2023/08/11 02:06:05;;;;;;;13.10;11.90;;;;;;;8.83;100.00;98461.38;106814;1280;25469;-85
2023/08/11 02:08:33;;;;;;;13.50;11.80;;;;;;;8.79;100.00;98461.34;106842;1280;22632;-84
2023/08/11 02:11:03;;;;;;;13.10;11.00;;;;;;;8.78;100.00;98461.17;106839;1280;22584;-84
2023/08/11 02:13:31;;;;;;;15.00;10.80;;;;;;;8.79;100.00;98458.05;106812;1280;24436;-84
2023/08/11 02:16:01;;;;;;;12.60;11.20;;;;;;;8.80;100.00;98459.08;106780;1280;25281;-84
2023/08/11 02:18:31;;;;;;;14.00;10.30;;;;;;;8.78;100.00;98459.67;106760;1280;22580;-85
2023/08/11 02:20:58;;;;;;;14.00;10.30;;;;;;;8.78;100.00;98463.86;106770;1280;24380;-85
2023/08/11 02:23:26;;;;;;;11.30;10.00;;;;;;;8.76;100.00;98464.19;106815;1280;22580;-84
2023/08/11 02:25:54;;;;;;;13.00;11.40;;;;;;;8.76;100.00;98468.21;106785;1280;22945;-86
2023/08/11 02:28:23;;;;;;;12.50;11.20;;;;;;;8.72;100.00;98467.44;106772;1280;24416;-86
2023/08/11 02:30:51;;;;;;;12.90;10.90;;;;;;;8.67;100.00;98466.95;106754;1280;25366;-85
2023/08/11 02:33:20;;;;;;;12.90;10.90;;;;;;;8.63;100.00;98465.83;106697;1259;22705;-86
2023/08/11 02:35:48;;;;;;;13.80;10.60;;;;;;;8.63;100.00;98473.04;106774;1280;24350;-85
2023/08/11 02:38:17;;;;;;;11.10;9.80;;;;;;;8.63;100.00;98469.76;106725;1280;22526;-85
2023/08/11 02:40:45;;;;;;;11.40;10.20;;;;;;;8.64;100.00;98476.52;106748;1280;22646;-85
2023/08/11 02:43:13;;;;;;;11.90;10.70;;;;;;;8.65;100.00;98474.21;106727;1280;22646;-85
2023/08/11 02:45:43;;;;;;;11.90;10.50;;;;;;;8.65;100.00;98473.89;106767;1280;22525;-85
2023/08/11 02:48:11;;;;;;;13.30;10.50;;;;;;;8.61;100.00;98475.52;106771;1280;25470;-85
2023/08/11 02:50:39;;;;;;;13.30;10.90;;;;;;;8.58;100.00;98476.80;106698;1280;22524;-85
2023/08/11 02:53:09;;;;;;;11.20;10.10;;;;;;;8.56;100.00;98475.41;106714;1280;22540;-85
2023/08/11 02:55:37;;;;;;;14.30;10.40;;;;;;;8.54;100.00;98480.78;106735;1280;22555;-84
2023/08/11 02:58:05;;;;;;;11.60;10.40;;;;;;;8.49;100.00;98485.15;106797;1280;25397;-86
2023/08/11 03:00:34;;;;;;;13.70;10.90;;;;;;;8.47;100.00;98482.46;106792;1280;22539;-84
2023/08/11 03:03:02;;;;;;;11.50;10.00;;;;;;;8.47;100.00;98486.48;106761;1280;22530;-84
2023/08/11 03:05:30;;;;;;;16.00;11.60;;;;;;;8.44;100.00;98480.37;106659;1280;22534;-83
2023/08/11 03:07:58;;;;;;;11.80;9.60;;;;;;;8.40;100.00;98480.31;106684;1280;22529;-84
2023/08/11 03:10:27;;;;;;;10.60;9.50;;;;;;;8.38;100.00;98483.84;106696;1280;22534;-83
2023/08/11 03:12:56;;;;;;;13.70;10.70;;;;;;;8.38;100.00;98486.52;106648;1280;22520;-84
2023/08/11 03:15:24;;;;;;;13.90;10.80;;;;;;;8.38;100.00;98488.79;106743;1280;24244;-85
2023/08/11 03:17:54;;;;;;;11.80;9.80;;;;;;;8.39;100.00;98491.42;106794;1277;23417;-85
2023/08/11 03:20:24;;;;;;;13.80;10.40;;;;;;;8.37;100.00;98491.40;106759;1280;22643;-86
2023/08/11 03:22:52;;;;;;;16.70;10.40;;;;;;;8.38;100.00;98496.61;106656;1280;24388;-85
2023/08/11 03:25:22;;;;;;;13.70;10.10;;;;;;;8.37;100.00;98491.79;106705;1280;22601;-86
2023/08/11 03:27:50;;;;;;;11.90;9.20;;;;;;;8.35;100.00;98497.91;106720;1280;24063;-86
2023/08/11 03:30:23;;;;;;;10.30;9.20;;;;;;;8.34;100.00;98502.90;106715;1280;22618;-85
2023/08/11 03:32:53;;;;;;;11.90;9.30;;;;;;;8.32;100.00;98501.71;106815;1280;22639;-85
2023/08/11 03:35:33;;;;;;;15.20;10.20;;;;;;;8.30;100.00;98504.46;106697;1280;22556;-84
2023/08/11 03:38:02;;;;;;;10.90;9.40;;;;;;;8.30;100.00;98497.15;106808;1280;24371;-84
2023/08/11 03:40:32;;;;;;;10.90;9.30;;;;;;;8.32;100.00;98496.14;106845;1280;23968;-84
2023/08/11 03:43:00;;;;;;;12.00;9.70;;;;;;;8.33;100.00;98499.58;106866;1280;26078;-84
2023/08/11 03:45:29;;;;;;;14.20;11.20;;;;;;;8.34;100.00;98500.33;106708;1280;24388;-84
2023/08/11 03:47:57;;;;;;;10.90;9.80;;;;;;;8.36;100.00;98499.98;106795;1280;22868;-85
2023/08/11 03:50:25;;;;;;;14.20;10.40;;;;;;;8.34;100.00;98502.46;106691;1280;25398;-85
2023/08/11 03:52:53;;;;;;;12.40;10.30;;;;;;;8.33;100.00;98501.13;106796;1280;22554;-85
2023/08/11 03:55:22;;;;;;;13.60;10.00;;;;;;;8.34;100.00;98501.98;106723;1280;22538;-87
2023/08/11 03:57:51;;;;;;;13.10;10.20;;;;;;;8.35;100.00;98507.20;106739;1280;22550;-87
2023/08/11 04:00:21;;;;;;;12.40;9.90;;;;;;;8.35;100.00;98504.77;106514;1280;22546;-87
2023/08/11 04:02:54;;;;;;;11.20;10.00;;;;;;;8.35;100.00;98506.34;106803;1280;22788;-88
2023/08/11 04:05:24;;;;;;;11.50;10.30;;;;;;;8.35;100.00;98509.88;106819;1280;22531;-87
2023/08/11 04:07:53;;;;;;;16.70;10.00;;;;;;;8.37;100.00;98514.17;106797;1280;26534;-87
2023/08/11 04:10:24;;;;;;;13.00;11.70;;;;;;;8.39;100.00;98509.15;106820;1280;22544;-86
2023/08/11 04:12:52;;;;;;;11.90;10.80;;;;;;;8.42;100.00;98513.39;106808;1257;23255;-86
2023/08/11 04:15:20;;;;;;;12.90;10.80;;;;;;;8.47;100.00;98510.78;106756;1280;25401;-86
2023/08/11 04:17:48;;;;;;;15.10;11.60;;;;;;;8.50;100.00;98514.05;107057;1280;25352;-83
2023/08/11 04:20:17;;;;;;;12.00;10.80;;;;;;;8.54;100.00;98513.08;106864;1280;22545;-83
2023/08/11 04:22:45;;;;;;;11.70;10.60;;;;;;;8.59;100.00;98515.21;106659;1280;23595;-83
2023/08/11 04:25:13;;;;;;;13.50;10.60;;;;;;;8.65;100.00;98516.66;106696;1280;24278;-83
2023/08/11 04:27:43;;;;;;;12.60;11.10;;;;;;;8.75;100.00;98519.86;106712;1280;22552;-83
2023/08/11 04:30:12;;;;;;;14.50;11.30;;;;;;;8.83;100.00;98516.73;106661;1280;24080;-84
2023/08/11 04:32:43;;;;;;;12.70;10.60;;;;;;;8.93;100.00;98520.05;106738;1280;22673;-83
2023/08/11 04:35:12;;;;;;;12.90;11.50;;;;;;;9.01;100.00;98520.56;106809;1280;24388;-83
2023/08/11 04:37:41;;;;;;;14.60;12.70;;;;;;;9.09;100.00;98521.02;106720;1280;22531;-83
2023/08/11 04:40:13;;;;;;;13.40;12.10;;;;;;;9.24;100.00;98524.05;106884;1280;22556;-83
2023/08/11 04:42:44;;;;;;;12.80;11.30;;;;;;;9.38;100.00;98522.27;106580;1280;22534;-83
2023/08/11 04:45:16;;;;;;;14.30;11.80;;;;;;;9.61;100.00;98522.32;106603;1280;22531;-83
2023/08/11 04:47:45;;;;;;;15.60;12.50;;;;;;;9.84;100.00;98524.25;106759;1280;25234;-83
2023/08/11 04:50:17;;;;;;;13.90;12.60;;;;;;;10.05;100.00;98521.64;106906;1280;24389;-82
2023/08/11 04:52:47;;;;;;;15.70;12.50;;;;;;;10.24;100.00;98521.67;106806;1280;22741;-82
2023/08/11 04:55:15;;;;;;;16.50;14.70;;;;;;;10.48;100.00;98524.36;106817;1280;25399;-82
2023/08/11 04:57:43;;;;;;;16.50;14.80;;;;;;;10.73;100.00;98527.65;106777;1280;22642;-82
2023/08/11 05:00:16;;;;;;;16.60;14.90;;;;;;;10.93;100.00;98531.66;106738;1280;23163;-82
2023/08/11 05:02:45;;;;;;;20.10;14.60;;;;;;;11.12;100.00;98535.71;106774;1280;22534;-82
2023/08/11 05:05:13;;;;;;;16.40;14.80;;;;;;;11.31;100.00;98532.38;106804;1280;22676;-83
2023/08/11 05:07:42;;;;;;;16.10;14.30;;;;;;;11.52;100.00;98535.14;106789;1280;23986;-82
2023/08/11 05:10:10;;;;;;;15.10;12.70;;;;;;;11.67;100.00;98538.84;106675;1280;23236;-85
2023/08/11 05:12:38;;;;;;;17.70;12.70;;;;;;;11.85;100.00;98537.65;106787;1280;25479;-83
2023/08/11 05:15:07;;;;;;;13.50;12.00;;;;;;;12.00;100.00;98537.00;106787;1280;22651;-83
2023/08/11 05:17:35;;;;;;;14.20;12.10;;;;;;;12.20;100.00;98536.93;106815;1258;25426;-83
2023/08/11 05:20:08;;;;;;;13.50;12.10;;;;;;;12.40;100.00;98540.48;106736;1280;22523;-84
2023/08/11 05:22:37;;;;;;;13.30;11.90;;;;;;;12.56;100.00;98543.08;106713;1280;25252;-83
2023/08/11 05:25:06;;;;;;;16.10;13.80;;;;;;;12.68;100.00;98542.88;106812;1280;22655;-83
2023/08/11 05:27:34;;;;;;;15.30;12.60;;;;;;;12.83;100.00;98543.49;106769;1280;22640;-84
2023/08/11 05:30:04;;;;;;;15.80;12.70;;;;;;;12.97;100.00;98542.20;106747;1280;22613;-83
2023/08/11 05:32:32;;;;;;;19.90;13.80;;;;;;;13.11;100.00;98544.65;106815;1280;22560;-86
2023/08/11 05:35:02;;;;;;;13.80;11.40;;;;;;;13.24;100.00;98540.96;106728;1280;22817;-86
2023/08/11 05:37:34;;;;;;;12.10;10.80;;;;;;;13.29;100.00;98541.10;106483;1280;26603;-86
2023/08/11 05:40:02;;;;;;;12.30;10.90;;;;;;;13.33;100.00;98534.57;106759;1280;22594;-84
2023/08/11 05:42:30;;;;;;;14.50;10.50;;;;;;;13.43;100.00;98536.54;106832;1280;23169;-85
2023/08/11 05:44:59;;;;;;;15.90;9.70;;;;;;;13.56;100.00;98538.05;106788;1280;25485;-85
2023/08/11 05:47:27;;;;;;;10.10;8.70;;;;;;;13.65;100.00;98535.02;106668;1280;25406;-86
2023/08/11 05:49:55;;;;;;;10.20;8.50;;;;;;;13.83;100.00;98535.89;106861;1280;23271;-86
2023/08/11 05:52:23;;;;;;;13.90;9.40;;;;;;;14.08;100.00;98537.31;106830;1280;25589;-86
2023/08/11 05:54:51;;;;;;;10.20;9.10;;;;;;;14.24;100.00;98537.11;106734;1280;24446;-87
2023/08/11 05:57:22;;;;;;;12.90;10.30;;;;;;;14.34;100.00;98542.31;106837;1280;22697;-87
2023/08/11 05:59:56;;;;;;;10.70;9.60;;;;;;;14.30;100.00;98541.26;106686;1280;22624;-80
2023/08/11 06:02:24;;;;;;;14.90;9.80;;;;;;;14.28;100.00;98541.54;106805;1280;22658;-81
2023/08/11 06:04:52;;;;;;;11.30;9.90;;;;;;;14.29;100.00;98538.52;106761;1280;24381;-81
2023/08/11 06:07:20;;;;;;;10.80;9.20;;;;;;;14.32;100.00;98541.21;106830;1280;22659;-82
2023/08/11 06:09:48;;;;;;;12.90;9.80;;;;;;;14.35;100.00;98537.73;106842;1280;25343;-79
2023/08/11 06:12:16;;;;;;;12.90;9.20;;;;;;;14.37;100.00;98547.21;106836;1280;22536;-80
2023/08/11 06:14:43;;;;;;;10.60;9.60;;;;;;;14.40;100.00;98545.48;107118;1280;24100;-77
2023/08/11 06:17:11;;;;;;;13.80;8.10;;;;;;;14.47;100.00;98543.88;106845;1272;22743;-78
2023/08/11 06:19:40;;;;;;;10.30;8.90;;;;;;;14.58;100.00;98544.84;106721;1278;22639;-81
2023/08/11 06:22:09;;;;;;;11.60;8.80;;;;;;;14.65;100.00;98544.58;106732;1275;22517;-80
2023/08/11 06:24:37;;;;;;;11.10;8.00;;;;;;;14.72;100.00;98548.41;106895;1280;22711;-80
2023/08/11 06:27:06;;;;;;;10.30;8.90;;;;;;;14.84;100.00;98553.65;106921;1279;22563;-80
2023/08/11 06:29:34;;;;;;;10.40;8.00;;;;;;;14.89;97.55;98559.76;106915;1280;22521;-79
2023/08/11 06:32:02;;;;;;;10.90;8.20;;;;;;;14.92;97.51;98561.58;106882;1279;23357;-79
2023/08/11 06:34:30;;;;;;;12.50;9.00;;;;;;;14.96;97.23;98562.56;107098;1279;22589;-78
2023/08/11 06:36:59;;;;;;;11.90;9.60;;;;;;;15.06;98.20;98561.16;106900;1280;22575;-79
2023/08/11 06:39:27;;;;;;;9.50;8.40;;;;;;;15.15;95.50;98562.73;106827;1280;24326;-77
2023/08/11 06:41:55;;;;;;;10.80;8.70;;;;;;;15.26;96.73;98557.40;106835;1279;22804;-78
2023/08/11 06:44:44;;;;;;;13.60;8.80;;;;;;;15.39;94.89;98559.83;106794;1279;24350;-78
2023/08/11 06:47:12;;;;;;;9.50;7.80;;;;;;;15.48;94.69;98561.77;106815;1279;22530;-78
2023/08/11 06:49:40;;;;;;;11.50;9.20;;;;;;;15.57;94.62;98565.55;106839;1279;25290;-78
2023/08/11 06:52:08;;;;;;;12.90;8.90;;;;;;;15.66;92.71;98565.13;106805;1262;24213;-77
2023/08/11 06:54:36;;;;;;;11.70;9.00;;;;;;;15.74;90.95;98571.52;106746;1280;22584;-77
2023/08/11 06:57:04;;;;;;;12.60;9.10;;;;;;;15.78;88.57;98570.67;106789;1279;23001;-77
2023/08/11 06:59:32;;;;;;;10.20;8.80;;;;;;;15.82;90.16;98569.57;106844;1260;23000;-77
2023/08/11 07:02:00;;;;;;;12.10;8.70;;;;;;;15.94;90.11;98574.16;106800;1280;25546;-77
2023/08/11 07:04:28;;;;;;;12.40;8.80;;;;;;;16.07;90.35;98576.25;106827;1280;25470;-78
2023/08/11 07:06:56;;;;;;;11.80;8.50;;;;;;;16.22;91.46;98572.24;106750;1280;22624;-76
2023/08/11 07:09:24;;;;;;;8.50;7.60;;;;;;;16.39;91.04;98569.98;107082;1258;22661;-77
2023/08/11 07:11:52;;;;;;;21.70;13.60;;;;;;;16.47;89.19;98575.09;107062;1279;22543;-76
2023/08/11 07:14:20;;;;;;;14.30;9.70;;;;;;;16.54;89.09;98578.83;106958;1280;22534;-79
2023/08/11 07:16:48;;;;;;;12.00;8.70;;;;;;;16.69;90.06;98576.13;106565;1280;23416;-75
2023/08/11 07:19:18;;;;;;;10.30;8.60;;;;;;;16.84;87.95;98574.17;106528;1279;22662;-75
2023/08/11 07:21:46;;;;;;;10.40;8.10;;;;;;;17.00;89.90;98574.11;106567;1262;22535;-78
2023/08/11 07:24:14;;;;;;;13.10;8.90;;;;;;;17.19;89.18;98578.38;107423;1280;25321;-75
2023/08/11 07:26:42;;;;;;;18.70;8.20;;;;;;;17.32;88.87;98573.27;106485;1279;22641;-78
2023/08/11 07:29:10;;;;;;;10.30;7.60;;;;;;;17.41;86.69;98575.01;106939;1280;22598;-76
2023/08/11 07:31:39;;;;;;;9.40;7.30;;;;;;;17.49;87.92;98577.23;106552;1280;24084;-76
2023/08/11 07:34:07;;;;;;;11.80;7.80;;;;;;;17.61;87.70;98574.71;106518;1279;25156;-75
2023/08/11 07:36:36;;;;;;;11.70;7.60;;;;;;;17.81;87.97;98578.22;106711;1278;24295;-77
2023/08/11 07:39:07;;;;;;;11.10;7.70;;;;;;;17.90;86.28;98578.38;106582;1278;25508;-77
2023/08/11 07:41:51;;;;;;;10.50;7.50;;;;;;;17.93;84.53;98578.09;106646;1278;22577;-77
2023/08/11 07:44:19;;;;;;;7.90;6.20;;;;;;;18.00;85.53;98581.39;106604;1278;23286;-80
2023/08/11 07:46:47;;;;;;;10.00;7.60;;;;;;;18.14;84.79;98582.09;106651;1278;24059;-77
2023/08/11 07:49:15;;;;;;;10.00;6.90;;;;;;;18.26;83.26;98580.34;106561;1278;22584;-77
2023/08/11 07:51:44;;;;;;;11.50;6.90;;;;;;;18.34;83.17;98580.73;106605;1278;25322;-78
2023/08/11 07:54:13;;;;;;;9.80;6.00;;;;;;;18.45;83.52;98582.82;106613;1278;25380;-78
2023/08/11 07:56:41;;;;;;;10.70;6.00;;;;;;;18.56;82.08;98580.67;106664;1278;24356;-77
2023/08/11 07:59:09;;;;;;;9.20;6.10;;;;;;;18.68;81.94;98579.59;106781;1278;24087;-78
2023/08/11 08:01:38;;;;;;;34.70;9.30;;;;;;;18.68;78.71;98580.71;106690;1278;22646;-77
2023/08/11 08:04:06;;;;;;;10.60;7.10;;;;;;;18.76;81.32;98580.80;106572;1278;24205;-77
2023/08/11 08:06:36;;;;;;;11.90;7.40;;;;;;;18.85;78.03;98577.76;106688;1278;23926;-78
2023/08/11 08:09:09;;;;;;;10.60;6.80;;;;;;;18.87;75.45;98580.99;106637;1278;22713;-79
2023/08/11 08:11:46;;;;;;;10.30;7.00;;;;;;;18.95;78.99;98580.75;106947;1278;22634;-79
2023/08/11 08:14:14;;;;;;;11.80;7.30;;;;;;;19.14;78.86;98576.88;107011;1278;25253;-78
2023/08/11 08:16:44;;;;;;;10.90;6.90;;;;;;;19.22;78.08;98573.09;106962;1278;25384;-79
2023/08/11 08:19:14;;;;;;;10.50;6.60;;;;;;;19.33;78.52;98576.79;106983;1279;22569;-79
2023/08/11 08:21:43;;;;;;;9.00;6.90;;;;;;;19.43;77.93;98580.65;106650;1278;25332;-79
2023/08/11 08:24:11;;;;;;;9.40;6.40;;;;;;;19.51;76.97;98578.50;106495;1278;24236;-79
2023/08/11 08:26:40;;;;;;;10.20;5.90;;;;;;;19.65;76.66;98579.58;106605;1278;24183;-77
2023/08/11 08:29:09;;;;;;;8.00;5.50;;;;;;;19.68;73.65;98580.87;106856;1278;24203;-76
2023/08/11 08:31:37;;;;;;;7.80;6.10;;;;;;;19.72;75.07;98577.16;106677;1278;22733;-76
2023/08/11 08:34:05;;;;;;;10.70;6.00;;;;;;;19.86;75.61;98578.29;106589;1278;24353;-75
2023/08/11 08:36:33;;;;;;;12.20;5.60;;;;;;;19.98;74.78;98576.31;106570;1278;22540;-76
2023/08/11 08:39:01;;;;;;;9.40;5.20;;;;;;;20.13;75.71;98580.91;106664;1278;22579;-75
2023/08/11 08:41:31;;;;;;;8.00;4.80;;;;;;;20.29;75.62;98584.05;106697;1278;23106;-76
2023/08/11 08:44:00;;;;;;;7.60;4.40;;;;;;;20.40;72.34;98586.89;107228;1278;22993;-74
2023/08/11 08:46:31;;;;;;;9.40;4.60;;;;;;;20.40;68.81;98588.38;107057;1275;22523;-77
2023/08/11 08:49:19;;;;;;;8.00;5.10;;;;;;;20.42;70.52;98586.05;107136;1278;22646;-76
2023/08/11 08:51:48;;;;;;;7.20;4.40;;;;;;;20.53;69.09;98589.13;107159;1278;22732;-78
2023/08/11 08:54:16;;;;;;;7.30;4.70;;;;;;;20.57;68.75;98590.80;107320;1278;22611;-77
2023/08/11 08:56:45;;;;;;;6.30;4.10;;;;;;;20.64;67.84;98589.76;107141;1278;22599;-76
2023/08/11 08:59:13;;;;;;;6.40;3.60;;;;;;;20.72;68.71;98583.89;106850;1278;22788;-75
2023/08/11 09:01:42;;;;;;;5.20;3.30;;;;;;;20.77;63.81;98585.89;106701;1278;22560;-75
2023/08/11 09:04:10;;;;;;;5.20;3.50;;;;;;;20.72;60.45;98588.11;106544;1278;24196;-75
2023/08/11 09:06:39;;;;;;;6.30;3.50;;;;;;;20.65;59.74;98578.61;106664;1278;22777;-75
2023/08/11 09:09:08;;;;;;;6.50;3.50;;;;;;;20.68;62.42;98579.40;106655;1278;22529;-75
2023/08/11 09:11:40;;;;;;;4.90;3.20;;;;;;;20.82;62.37;98578.76;107121;1278;25478;-75
2023/08/11 09:14:09;;;;;;;6.10;3.30;;;;;;;20.92;61.96;98570.48;106571;1278;22656;-76
2023/08/11 09:16:38;;;;;;;5.10;3.40;;;;;;;21.01;59.33;98576.43;106770;1255;22784;-76
2023/08/11 09:19:10;;;;;;;5.30;3.10;;;;;;;21.04;56.42;98576.91;107221;1278;22706;-75
2023/08/11 09:21:41;;;;;;;7.40;3.90;;;;;;;21.17;60.84;98574.20;107164;1278;22597;-76
2023/08/11 09:24:11;;;;;;;4.10;2.90;;;;;;;21.35;58.88;98573.02;106651;1278;24091;-76
2023/08/11 09:26:49;;;;;;;7.60;3.50;;;;;;;21.45;57.89;98572.49;107182;1278;22659;-76
2023/08/11 09:29:19;;;;;;;5.90;3.10;;;;;;;21.59;58.51;98579.41;107385;1278;22599;-76
2023/08/11 09:31:52;;;;;;;5.50;3.30;;;;;;;21.65;59.43;98570.00;107129;1257;22527;-76
2023/08/11 09:34:21;;;;;;;6.80;3.30;;;;;;;21.71;55.56;98570.56;106554;1280;24129;-76
2023/08/11 09:36:49;;;;;;;5.50;3.40;;;;;;;21.76;56.54;98571.52;106995;1279;22558;-76
2023/08/11 09:39:17;;;;;;;5.10;3.00;;;;;;;21.80;54.11;98571.48;107353;1280;22523;-76
2023/08/11 09:41:48;;;;;;;6.10;3.30;;;;;;;21.79;54.47;98571.35;106551;1280;25233;-74
2023/08/11 09:44:19;;;;;;;4.50;2.90;;;;;;;21.83;56.06;98567.75;106625;1279;25325;-78
2023/08/11 09:46:48;;;;;;;5.70;3.30;;;;;;;21.98;56.02;98565.66;106608;1280;22860;-79
2023/08/11 09:49:18;;;;;;;5.10;3.00;;;;;;;22.08;54.62;98568.55;106501;1280;22655;-77
2023/08/11 09:51:49;;;;;;;4.10;2.70;;;;;;;22.14;55.48;98571.84;106585;1279;25165;-78
2023/08/11 09:54:19;;;;;;;6.10;2.80;;;;;;;22.25;52.26;98576.23;107058;1279;22580;-77
2023/08/11 09:56:48;;;;;;;5.60;2.80;;;;;;;22.23;52.33;98572.83;107147;1279;22527;-77
2023/08/11 09:59:20;;;;;;;6.60;3.20;;;;;;;22.24;52.40;98573.54;106656;1279;25387;-76
2023/08/11 10:01:53;;;;;;;5.90;2.70;;;;;;;22.33;52.79;98571.95;106564;1279;23517;-76
2023/08/11 10:04:27;;;;;;;5.20;2.60;;;;;;;22.47;53.52;98569.17;107142;1279;22559;-76
2023/08/11 10:06:57;;;;;;;;;;;;;;;22.59;51.64;98568.30;107130;1271;22501;-76
2023/08/11 10:09:28;;;;;;;5.30;2.80;;;;;;;22.51;52.76;98567.30;107000;1279;22540;-75
2023/08/11 10:11:59;;;;;;;4.00;2.50;;;;;;;22.64;52.20;98563.22;107080;1279;23282;-75
2023/08/11 10:14:28;;;;;;;4.80;2.50;;;;;;;22.73;50.63;98568.12;106662;1279;23912;-75
2023/08/11 10:16:59;;;;;;;6.70;3.40;;;;;;;22.83;50.59;98564.86;107075;1279;22642;-75
2023/08/11 10:19:27;;;;;;;4.40;2.90;;;;;;;22.96;50.75;98563.38;106598;1279;22538;-74
2023/08/11 10:21:56;;;;;;;5.20;2.80;;;;;;;23.07;48.53;98563.98;106545;1280;24996;-75
2023/08/11 10:24:27;;;;;;;3.20;2.40;;;;;;;23.10;48.43;98562.71;106593;1279;25281;-78
2023/08/11 10:26:55;;;;;;;5.10;2.60;;;;;;;23.10;45.43;98561.77;107140;1279;22547;-78
2023/08/11 10:29:24;;;;;;;3.40;2.60;;;;;;;23.10;46.18;98561.77;106699;1279;22672;-78
2023/08/11 10:31:54;;;;;;;4.50;2.80;;;;;;;23.09;47.07;98559.17;106767;1279;23480;-77
2023/08/11 10:34:24;;;;;;;3.80;2.80;;;;;;;23.00;46.66;98563.55;106668;1279;24279;-80
2023/08/11 10:36:55;;;;;;;4.50;2.80;;;;;;;22.95;45.91;98562.60;106539;1279;22531;-78
2023/08/11 10:39:23;;;;;;;5.20;2.90;;;;;;;23.01;46.91;98554.39;107027;1279;24120;-80
2023/08/11 10:41:52;;;;;;;3.40;2.70;;;;;;;23.21;47.74;98550.23;106626;1279;23052;-77
2023/08/11 10:44:27;;;;;;;5.70;2.70;;;;;;;23.45;45.96;98546.96;107124;1280;22667;-76
2023/08/11 10:47:02;;;;;;;5.60;3.00;;;;;;;23.64;46.57;98548.44;107138;1280;22479;-76
2023/08/11 10:49:33;;;;;;;9.00;2.90;;;;;;;23.85;46.82;98547.05;107052;1280;24264;-75
2023/08/11 10:52:03;;;;;;;4.50;2.40;;;;;;;23.96;43.01;98552.23;106682;1280;24901;-75
2023/08/11 10:54:32;;;;;;;6.30;2.40;;;;;;;23.86;41.41;98548.48;106935;1280;22743;-76
2023/08/11 10:57:01;;;;;;;4.00;2.40;;;;;;;23.76;40.48;98546.59;106565;1280;24371;-74
2023/08/11 10:59:32;;;;;;;4.00;2.70;;;;;;;23.67;39.30;98547.55;106608;1279;22612;-77
2023/08/11 11:02:01;;;;;;;4.10;2.50;;;;;;;23.68;41.22;98544.58;107126;1279;25349;-78
2023/08/11 11:04:31;;;;;;;5.00;2.20;;;;;;;23.60;37.36;98548.77;107040;1280;22537;-77
2023/08/11 11:07:00;;;;;;;7.00;3.10;;;;;;;23.55;37.72;98542.00;107022;1280;25400;-78
2023/08/11 11:09:29;;;;;;;5.60;2.50;;;;;;;23.58;39.27;98538.59;107080;1279;22961;-80
2023/08/11 11:11:57;;;;;;;3.80;2.40;;;;;;;23.74;39.24;98539.79;107170;1279;24062;-81
2023/08/11 11:14:25;;;;;;;8.40;3.10;;;;;;;23.84;40.50;98533.81;107127;1279;22651;-76
2023/08/11 11:16:59;;;;;;;5.60;2.90;;;;;;;23.87;41.32;98528.91;106628;1279;22540;-76
2023/08/11 11:19:28;;;;;;;6.90;3.70;;;;;;;23.83;39.07;98534.11;107130;1279;22676;-75
2023/08/11 11:21:56;;;;;;;6.30;3.10;;;;;;;23.82;40.85;98536.54;106609;1279;22664;-75
2023/08/11 11:24:25;;;;;;;4.70;2.40;;;;;;;23.88;41.04;98531.44;107637;1279;24225;-75
2023/08/11 11:26:53;;;;;;;3.30;2.20;;;;;;;24.02;42.06;98531.73;106717;1280;22816;-77